createdAt,value
2018-06-09T00:00:27.749Z,68.47
2018-06-09T00:01:32.345Z,71.42
2018-06-09T00:02:37.022Z,69.60
2018-06-09T00:03:41.417Z,70.87
2018-06-09T00:04:45.784Z,68.83
2018-06-09T00:05:50.146Z,69.87
2018-06-09T00:06:54.270Z,68.07
2018-06-09T00:07:58.437Z,72.12
2018-06-09T00:09:02.863Z,68.45
2018-06-09T00:10:06.982Z,72.22
2018-06-09T00:11:11.523Z,70.03
2018-06-09T00:12:15.745Z,70.55
2018-06-09T00:13:19.912Z,68.90
2018-06-09T00:14:24.324Z,66.40
2018-06-09T00:15:28.697Z,71.57
2018-06-09T00:16:33.078Z,70.67
2018-06-09T00:17:37.461Z,68.02
2018-06-09T00:18:41.767Z,68.07
2018-06-09T00:19:46.339Z,68.55
2018-06-09T00:20:50.704Z,68.42
2018-06-09T00:21:55.255Z,64.75
2018-06-09T00:22:59.982Z,71.02
2018-06-09T00:24:04.288Z,73.65
2018-06-09T00:25:08.707Z,69.10
2018-06-09T00:26:13.119Z,69.37
2018-06-09T00:27:17.527Z,68.12
2018-06-09T00:28:21.862Z,69.77
2018-06-09T00:29:26.229Z,71.80
2018-06-09T00:30:30.436Z,70.45
2018-06-09T00:31:34.918Z,67.42
2018-06-09T00:32:39.291Z,68.45
2018-06-09T00:33:43.371Z,70.70
2018-06-09T00:34:47.638Z,72.22
2018-06-09T00:35:52.186Z,68.95
2018-06-09T00:36:56.870Z,68.45
2018-06-09T00:38:01.267Z,74.05
2018-06-09T00:39:07.725Z,68.50
2018-06-09T00:40:11.875Z,69.82
2018-06-09T00:41:16.297Z,71.07
2018-06-09T00:42:20.376Z,66.05
2018-06-09T00:43:24.423Z,69.17
2018-06-09T00:44:28.519Z,67.05
2018-06-09T00:45:32.650Z,67.95
2018-06-09T00:46:36.727Z,68.97
2018-06-09T00:47:41.007Z,68.25
2018-06-09T00:48:45.361Z,67.30
2018-06-09T00:49:49.412Z,71.77
2018-06-09T00:50:53.835Z,67.35
2018-06-09T00:51:58.389Z,68.95
2018-06-09T00:53:02.546Z,70.67
2018-06-09T00:54:07.061Z,67.20
2018-06-09T00:55:11.162Z,70.45
2018-06-09T00:56:26.322Z,72.00
2018-06-09T00:57:30.459Z,69.77
2018-06-09T00:58:34.531Z,69.42
2018-06-09T00:59:38.730Z,70.15
2018-06-09T01:00:42.854Z,73.15
2018-06-09T01:01:47.008Z,71.37
2018-06-09T01:02:51.143Z,68.72
2018-06-09T01:03:55.475Z,72.58
2018-06-09T01:04:59.843Z,69.42
2018-06-09T01:06:04.193Z,69.85
2018-06-09T01:07:08.826Z,69.53
2018-06-09T01:08:13.966Z,68.47
2018-06-09T01:09:18.391Z,72.42
2018-06-09T01:10:22.780Z,70.00
2018-06-09T01:11:27.098Z,68.42
2018-06-09T01:12:31.486Z,72.62
2018-06-09T01:13:36.076Z,72.53
2018-06-09T01:14:40.464Z,70.95
2018-06-09T01:15:44.797Z,69.27
2018-06-09T01:16:49.141Z,70.05
2018-06-09T01:17:53.514Z,70.17
2018-06-09T01:18:57.866Z,71.90
2018-06-09T01:20:02.655Z,67.62
2018-06-09T01:21:06.759Z,70.65
2018-06-09T01:22:10.871Z,69.75
2018-06-09T01:23:15.062Z,71.45
2018-06-09T01:24:19.277Z,69.92
2018-06-09T01:25:23.391Z,72.17
2018-06-09T01:26:27.483Z,70.32
2018-06-09T01:27:31.594Z,76.05
2018-06-09T01:28:35.716Z,73.45
2018-06-09T01:29:39.760Z,75.12
2018-06-09T01:30:44.095Z,76.57
2018-06-09T01:31:48.796Z,76.02
2018-06-09T01:32:53.088Z,76.60
2018-06-09T01:33:57.482Z,75.52
2018-06-09T01:35:01.864Z,74.75
2018-06-09T01:36:06.208Z,74.58
2018-06-09T01:37:10.706Z,77.15
2018-06-09T01:38:15.320Z,79.05
2018-06-09T01:39:19.692Z,77.35
2018-06-09T01:40:24.042Z,77.72
2018-06-09T01:41:28.397Z,76.90
2018-06-09T01:42:32.804Z,77.53
2018-06-09T01:43:37.168Z,74.55
2018-06-09T01:44:41.490Z,75.47
2018-06-09T01:45:45.881Z,73.07
2018-06-09T01:46:50.266Z,79.75
2018-06-09T01:47:54.708Z,79.00
2018-06-09T01:48:59.079Z,75.97
2018-06-09T01:50:03.835Z,77.42
2018-06-09T01:51:08.283Z,78.12
2018-06-09T01:52:12.676Z,76.70
2018-06-09T01:53:17.057Z,75.47
2018-06-09T01:54:21.403Z,77.17
2018-06-09T01:55:26.002Z,78.00
2018-06-09T01:56:30.752Z,79.65
2018-06-09T01:57:35.142Z,77.45
2018-06-09T01:58:39.473Z,78.87
2018-06-09T01:59:43.855Z,78.42
2018-06-09T02:00:48.239Z,79.27
2018-06-09T02:01:52.619Z,80.80
2018-06-09T02:02:56.989Z,79.45
2018-06-09T02:04:01.796Z,76.67
2018-06-09T02:05:06.104Z,80.55
2018-06-09T02:06:10.412Z,79.00
2018-06-09T02:07:14.511Z,78.55
2018-06-09T02:08:18.926Z,74.37
2018-06-09T02:09:23.091Z,81.35
2018-06-09T02:10:27.213Z,76.82
2018-06-09T02:11:31.350Z,77.10
2018-06-09T02:12:35.437Z,82.02
2018-06-09T02:13:39.550Z,77.85
2018-06-09T02:14:43.902Z,80.83
2018-06-09T02:15:47.983Z,79.22
2018-06-09T02:16:52.531Z,78.20
2018-06-09T02:17:56.954Z,80.40
2018-06-09T02:19:40.153Z,81.28
2018-06-09T02:20:44.485Z,79.27
2018-06-09T02:21:48.790Z,78.70
2018-06-09T02:22:53.228Z,80.70
2018-06-09T02:23:57.583Z,82.10
2018-06-09T02:25:01.780Z,83.80
2018-06-09T02:26:05.894Z,81.80
2018-06-09T02:27:10.473Z,79.80
2018-06-09T02:28:14.091Z,80.62
2018-06-09T02:29:18.204Z,80.72
2018-06-09T02:30:22.383Z,81.65
2018-06-09T02:31:26.594Z,81.20
2018-06-09T02:32:30.982Z,83.00
2018-06-09T02:33:35.266Z,79.12
2018-06-09T02:34:39.524Z,81.10
2018-06-09T02:35:43.791Z,80.70
2018-06-09T02:36:47.883Z,84.58
2018-06-09T02:37:52.081Z,83.33
2018-06-09T02:40:30.904Z,84.55
2018-06-09T02:41:35.055Z,80.90
2018-06-09T02:42:39.209Z,83.92
2018-06-09T02:43:43.473Z,79.72
2018-06-09T02:44:47.900Z,80.87
2018-06-09T02:45:52.027Z,76.45
2018-06-09T02:46:56.359Z,79.20
2018-06-09T02:48:00.719Z,80.05
2018-06-09T02:49:05.193Z,82.00
2018-06-09T02:50:09.521Z,79.32
2018-06-09T02:51:14.362Z,81.92
2018-06-09T02:52:18.773Z,77.85
2018-06-09T02:53:23.176Z,83.30
2018-06-09T02:54:27.792Z,84.50
2018-06-09T02:55:32.141Z,80.53
2018-06-09T02:56:36.604Z,82.08
2018-06-09T02:57:40.979Z,80.25
2018-06-09T02:58:45.347Z,78.47
2018-06-09T02:59:49.642Z,79.90
2018-06-09T03:00:54.040Z,84.87
2018-06-09T03:01:58.458Z,83.35
2018-06-09T03:03:03.161Z,85.20
2018-06-09T03:04:07.588Z,85.70
2018-06-09T03:05:11.830Z,85.75
2018-06-09T03:06:15.985Z,82.65
2018-06-09T03:07:20.103Z,83.17
2018-06-09T03:08:24.177Z,83.42
2018-06-09T03:09:28.652Z,84.75
2018-06-09T03:10:32.805Z,84.25
2018-06-09T03:11:36.915Z,81.90
2018-06-09T03:12:41.264Z,80.87
2018-06-09T03:13:45.631Z,81.87
2018-06-09T03:14:49.976Z,83.47
2018-06-09T03:15:54.449Z,83.03
2018-06-09T03:16:58.612Z,81.67
2018-06-09T03:18:02.781Z,84.10
2018-06-09T03:19:06.886Z,83.35
2018-06-09T03:20:11.011Z,82.78
2018-06-09T03:21:15.555Z,83.58
2018-06-09T03:22:19.639Z,86.50
2018-06-09T03:23:23.789Z,87.30
2018-06-09T03:24:27.887Z,83.75
2018-06-09T03:25:31.977Z,89.55
2018-06-09T03:26:36.095Z,82.00
2018-06-09T03:27:40.661Z,84.00
2018-06-09T03:28:44.299Z,84.52
2018-06-09T03:29:48.563Z,88.52
2018-06-09T03:30:52.717Z,89.95
2018-06-09T03:31:56.998Z,84.15
2018-06-09T03:33:01.073Z,88.67
2018-06-09T03:34:05.999Z,87.40
2018-06-09T03:35:10.025Z,86.28
2018-06-09T03:36:13.661Z,91.22
2018-06-09T03:37:17.797Z,85.92
2018-06-09T03:38:21.940Z,87.10
2018-06-09T03:39:26.388Z,86.97
2018-06-09T03:40:30.515Z,87.88
2018-06-09T03:41:34.723Z,85.67
2018-06-09T03:42:38.874Z,85.38
2018-06-09T03:43:43.001Z,87.05
2018-06-09T03:44:47.372Z,85.65
2018-06-09T03:45:52.311Z,87.37
2018-06-09T03:46:56.641Z,87.47
2018-06-09T03:48:01.200Z,83.58
2018-06-09T03:49:05.610Z,87.78
2018-06-09T03:50:10.133Z,86.20
2018-06-09T03:51:13.930Z,84.67
2018-06-09T03:52:19.053Z,89.97
2018-06-09T03:53:23.237Z,86.02
2018-06-09T03:54:27.682Z,87.72
2018-06-09T03:55:31.827Z,88.52
2018-06-09T03:56:35.917Z,86.28
2018-06-09T03:57:40.105Z,84.52
2018-06-09T03:58:44.259Z,81.50
2018-06-09T03:59:48.379Z,81.78
2018-06-09T04:00:52.581Z,85.50
2018-06-09T04:01:56.993Z,85.85
2018-06-09T04:03:01.059Z,84.50
2018-06-09T04:04:05.231Z,84.17
2018-06-09T04:05:09.596Z,85.10
2018-06-09T04:06:13.831Z,86.35
2018-06-09T04:07:18.023Z,87.08
2018-06-09T04:08:22.471Z,84.80
2018-06-09T04:09:26.739Z,83.45
2018-06-09T04:10:31.313Z,80.53
2018-06-09T04:11:35.659Z,82.10
2018-06-09T04:12:39.649Z,82.30
2018-06-09T04:13:43.851Z,79.25
2018-06-09T04:14:48.178Z,79.53
2018-06-09T04:15:51.988Z,81.35
2018-06-09T04:16:56.384Z,81.08
2018-06-09T04:18:00.573Z,84.10
2018-06-09T04:19:04.972Z,80.77
2018-06-09T04:20:09.179Z,81.70
2018-06-09T04:21:13.564Z,78.62
2018-06-09T04:22:18.267Z,82.57
2018-06-09T04:23:23.371Z,80.77
2018-06-09T04:24:27.487Z,81.32
2018-06-09T04:25:31.685Z,78.87
2018-06-09T04:26:35.789Z,79.55
2018-06-09T04:27:39.972Z,76.02
2018-06-09T04:28:43.654Z,78.78
2018-06-09T04:29:47.817Z,86.32
2018-06-09T04:30:52.265Z,78.80
2018-06-09T04:31:56.081Z,81.90
2018-06-09T04:33:00.724Z,81.20
2018-06-09T04:34:05.211Z,83.58
2018-06-09T04:35:09.632Z,79.47
2018-06-09T04:36:14.030Z,78.25
2018-06-09T04:37:18.432Z,76.12
2018-06-09T04:38:22.807Z,76.20
2018-06-09T04:39:26.888Z,80.62
2018-06-09T04:40:31.277Z,78.95
2018-06-09T04:41:35.514Z,77.62
2018-06-09T04:42:39.783Z,78.90
2018-06-09T04:43:44.056Z,81.45
2018-06-09T04:44:48.561Z,75.10
2018-06-09T04:45:52.893Z,76.77
2018-06-09T04:46:57.368Z,74.53
2018-06-09T04:48:01.920Z,74.30
2018-06-09T04:49:06.311Z,76.10
2018-06-09T04:50:10.234Z,72.82
2018-06-09T04:51:14.353Z,77.27
2018-06-09T04:52:18.751Z,71.40
2018-06-09T04:53:23.556Z,72.30
2018-06-09T04:54:27.163Z,69.53
2018-06-09T04:55:31.312Z,72.78
2018-06-09T04:56:35.491Z,75.12
2018-06-09T04:57:39.616Z,72.92
2018-06-09T04:58:43.776Z,77.85
2018-06-09T04:59:47.927Z,73.67
2018-06-09T05:00:52.056Z,72.75
2018-06-09T05:01:56.176Z,71.53
2018-06-09T05:02:59.902Z,70.25
2018-06-09T05:04:03.980Z,72.37
2018-06-09T05:05:08.176Z,71.17
2018-06-09T05:06:12.366Z,72.55
2018-06-09T05:07:16.747Z,71.97
2018-06-09T05:08:20.924Z,73.15
2018-06-09T05:09:25.117Z,73.70
2018-06-09T05:10:29.367Z,71.28
2018-06-09T05:11:33.666Z,76.37
2018-06-09T05:12:37.939Z,77.97
2018-06-09T05:13:46.226Z,72.37
2018-06-09T05:14:50.363Z,77.47
2018-06-09T05:15:55.139Z,75.70
2018-06-09T05:17:00.048Z,77.53
2018-06-09T05:18:04.330Z,75.45
2018-06-09T05:19:08.918Z,76.95
2018-06-09T05:20:13.515Z,74.07
2018-06-09T05:21:18.332Z,77.10
2018-06-09T05:22:22.787Z,79.20
2018-06-09T05:23:27.762Z,77.60
2018-06-09T05:24:32.181Z,78.78
2018-06-09T05:25:36.662Z,75.92
2018-06-09T05:26:41.019Z,79.27
2018-06-09T05:27:45.517Z,82.47
2018-06-09T05:28:49.734Z,82.02
2018-06-09T05:29:54.201Z,82.53
2018-06-09T05:30:58.453Z,81.45
2018-06-09T05:32:02.519Z,86.02
2018-06-09T05:33:06.175Z,85.28
2018-06-09T05:34:10.319Z,82.30
2018-06-09T05:35:14.425Z,84.75
2018-06-09T05:36:18.102Z,82.65
2018-06-09T05:37:22.126Z,79.75
2018-06-09T05:38:26.273Z,82.78
2018-06-09T05:39:30.727Z,82.35
2018-06-09T05:40:35.164Z,83.25
2018-06-09T05:41:39.879Z,80.77
2018-06-09T05:42:44.377Z,80.35
2018-06-09T05:43:48.172Z,82.78
2018-06-09T05:44:52.591Z,86.53
2018-06-09T05:45:56.981Z,83.90
2018-06-09T05:47:01.339Z,84.45
2018-06-09T05:48:05.826Z,82.78
2018-06-09T05:49:10.187Z,86.72
2018-06-09T05:50:14.563Z,87.33
2018-06-09T05:51:19.094Z,87.20
2018-06-09T05:52:23.524Z,87.62
2018-06-09T05:53:27.811Z,88.67
2018-06-09T05:54:32.255Z,85.75
2018-06-09T05:55:36.702Z,84.52
2018-06-09T05:56:41.062Z,84.00
2018-06-09T05:57:45.604Z,87.37
2018-06-09T05:58:50.012Z,84.32
2018-06-09T05:59:54.376Z,86.00
2018-06-09T06:00:58.746Z,88.72
2018-06-09T06:02:03.127Z,85.70
2018-06-09T06:03:07.540Z,86.40
2018-06-09T06:04:12.026Z,88.33
2018-06-09T06:05:16.488Z,87.37
2018-06-09T06:06:20.940Z,90.47
2018-06-09T06:07:25.187Z,90.57
2018-06-09T06:08:29.370Z,92.92
2018-06-09T06:09:33.494Z,93.40
2018-06-09T06:10:37.192Z,93.82
2018-06-09T06:11:41.800Z,99.07
2018-06-09T06:12:46.032Z,97.27
2018-06-09T06:13:50.135Z,95.72
2018-06-09T06:14:54.321Z,100.10
2018-06-09T06:15:58.420Z,101.67
2018-06-09T06:17:02.947Z,103.53
2018-06-09T06:18:07.583Z,102.17
2018-06-09T06:19:11.691Z,99.67
2018-06-09T06:20:16.100Z,96.60
2018-06-09T06:21:20.558Z,93.20
2018-06-09T06:22:24.947Z,97.42
2018-06-09T06:23:29.358Z,92.35
2018-06-09T06:24:33.804Z,90.87
2018-06-09T06:25:38.223Z,93.05
2018-06-09T06:26:42.685Z,91.17
2018-06-09T06:27:47.158Z,86.80
2018-06-09T06:28:51.601Z,84.92
2018-06-09T06:30:00.763Z,88.90
2018-06-09T06:31:05.382Z,85.70
2018-06-09T06:32:09.600Z,87.47
2018-06-09T06:33:14.097Z,84.45
2018-06-09T06:34:18.234Z,86.32
2018-06-09T06:35:22.439Z,81.02
2018-06-09T06:36:26.884Z,79.72
2018-06-09T06:37:31.154Z,79.17
2018-06-09T06:38:35.344Z,82.82
2018-06-09T06:39:39.577Z,84.77
2018-06-09T06:40:43.745Z,77.10
2018-06-09T06:41:47.922Z,76.55
2018-06-09T06:42:52.091Z,81.02
2018-06-09T06:43:56.262Z,80.00
2018-06-09T06:45:00.443Z,89.32
2018-06-09T06:46:04.679Z,86.82
2018-06-09T06:47:08.829Z,85.87
2018-06-09T06:48:13.429Z,79.70
2018-06-09T06:49:17.593Z,79.97
2018-06-09T06:50:21.740Z,82.17
2018-06-09T06:51:25.931Z,81.72
2018-06-09T06:52:30.108Z,85.53
2018-06-09T06:53:34.278Z,83.27
2018-06-09T06:54:38.571Z,84.62
2018-06-09T06:55:42.982Z,86.17
2018-06-09T06:56:49.990Z,89.70
2018-06-09T06:57:54.391Z,92.88
2018-06-09T06:58:58.824Z,93.92
2018-06-09T07:00:03.438Z,93.95
2018-06-09T07:01:07.977Z,95.03
2018-06-09T07:02:12.417Z,94.25
2018-06-09T07:03:16.843Z,92.53
2018-06-09T07:04:21.344Z,89.37
2018-06-09T07:05:25.508Z,89.70
2018-06-09T07:06:30.104Z,86.78
2018-06-09T07:07:34.308Z,89.30
2018-06-09T07:08:38.534Z,83.78
2018-06-09T07:09:42.665Z,79.50
2018-06-09T07:10:46.824Z,80.65
2018-06-09T07:11:51.462Z,80.85
2018-06-09T07:12:56.071Z,75.32
2018-06-09T07:14:00.163Z,76.85
2018-06-09T07:15:04.284Z,66.22
2018-06-09T07:16:08.426Z,68.95
2018-06-09T07:17:12.554Z,67.25
2018-06-09T07:18:16.846Z,61.40
2018-06-09T07:19:21.153Z,65.28
2018-06-09T07:20:25.303Z,64.15
2018-06-09T07:21:31.124Z,61.20
2018-06-09T07:22:40.049Z,65.08
2018-06-09T07:23:44.454Z,60.48
2018-06-09T07:24:49.451Z,58.15
2018-06-09T07:25:53.899Z,63.42
2018-06-09T07:26:58.304Z,61.33
2018-06-09T07:28:03.352Z,62.93
2018-06-09T07:29:07.545Z,62.98
2018-06-09T07:30:12.108Z,60.80
2018-06-09T07:31:17.059Z,60.92
2018-06-09T07:32:22.675Z,60.58
2018-06-09T07:33:27.043Z,58.98
2018-06-09T07:34:32.873Z,60.80
2018-06-09T07:35:37.375Z,56.73
2018-06-09T07:36:42.221Z,63.78
2018-06-09T07:37:46.561Z,62.53
2018-06-09T07:38:50.952Z,62.35
2018-06-09T07:39:55.318Z,65.90
2018-06-09T07:40:59.635Z,71.33
2018-06-09T07:42:04.094Z,70.70
2018-06-09T07:43:08.430Z,71.47
2018-06-09T07:44:12.828Z,70.20
2018-06-09T07:45:17.163Z,68.42
2018-06-09T07:46:34.274Z,70.95
2018-06-09T07:47:38.714Z,73.30
2018-06-09T07:48:43.092Z,70.45
2018-06-09T07:49:47.525Z,69.97
2018-06-09T07:50:51.943Z,69.32
2018-06-09T07:51:56.325Z,76.07
2018-06-09T07:53:00.816Z,76.90
2018-06-09T07:54:05.228Z,77.92
2018-06-09T07:55:09.875Z,82.25
2018-06-09T07:56:14.395Z,81.92
2018-06-09T07:57:18.786Z,82.45
2018-06-09T07:58:23.200Z,84.72
2018-06-09T07:59:27.514Z,84.15
2018-06-09T08:00:32.075Z,86.57
2018-06-09T08:01:36.843Z,76.85
2018-06-09T08:02:41.279Z,82.33
2018-06-09T08:03:45.506Z,82.30
2018-06-09T08:04:51.015Z,82.65
2018-06-09T08:05:55.649Z,80.55
2018-06-09T08:07:00.137Z,83.27
2018-06-09T08:08:04.591Z,79.15
2018-06-09T08:09:08.966Z,82.25
2018-06-09T08:10:13.392Z,86.25
2018-06-09T08:11:17.898Z,88.70
2018-06-09T08:12:22.352Z,86.47
2018-06-09T08:13:26.990Z,83.58
2018-06-09T08:14:31.374Z,82.40
2018-06-09T08:15:35.891Z,81.02
2018-06-09T08:16:40.370Z,78.80
2018-06-09T08:17:44.753Z,82.10
2018-06-09T08:18:49.358Z,82.15
2018-06-09T08:19:54.295Z,80.53
2018-06-09T08:20:59.348Z,84.50
2018-06-09T08:22:03.782Z,89.55
2018-06-09T08:23:08.293Z,83.85
2018-06-09T08:24:12.566Z,84.10
2018-06-09T08:25:16.783Z,84.40
2018-06-09T08:26:21.042Z,82.72
2018-06-09T08:27:25.348Z,79.10
2018-06-09T08:28:29.592Z,81.72
2018-06-09T08:29:33.951Z,79.58
2018-06-09T08:30:38.285Z,78.28
2018-06-09T08:31:42.771Z,84.05
2018-06-09T08:32:46.941Z,78.30
2018-06-09T08:33:51.066Z,77.65
2018-06-09T08:34:55.253Z,77.30
2018-06-09T08:35:59.663Z,76.05
2018-06-09T08:37:03.827Z,74.58
2018-06-09T08:38:08.261Z,72.97
2018-06-09T08:39:12.464Z,73.52
2018-06-09T08:40:16.568Z,73.15
2018-06-09T08:41:20.665Z,71.90
2018-06-09T08:42:24.851Z,73.62
2018-06-09T08:43:29.019Z,73.20
2018-06-09T08:44:32.650Z,76.80
2018-06-09T08:45:37.382Z,74.07
2018-06-09T08:46:41.903Z,72.58
2018-06-09T08:47:46.539Z,76.12
2018-06-09T08:48:51.165Z,74.80
2018-06-09T08:49:55.546Z,74.77
2018-06-09T08:51:00.008Z,72.20
2018-06-09T08:52:04.281Z,65.32
2018-06-09T08:53:08.682Z,66.33
2018-06-09T08:54:13.614Z,64.97
2018-06-09T08:55:18.102Z,63.35
2018-06-09T08:56:22.820Z,62.43
2018-06-09T08:57:27.163Z,61.50
2018-06-09T08:58:31.513Z,63.90
2018-06-09T08:59:35.835Z,64.27
2018-06-09T09:00:40.351Z,65.92
2018-06-09T09:01:44.933Z,63.50
2018-06-09T09:02:49.296Z,60.67
2018-06-09T09:03:53.626Z,62.40
2018-06-09T09:04:58.077Z,57.98
2018-06-09T09:06:02.983Z,55.75
2018-06-09T09:07:07.751Z,52.00
2018-06-09T09:08:12.244Z,51.98
2018-06-09T09:09:16.697Z,54.30
2018-06-09T09:10:21.155Z,52.88
2018-06-09T09:11:25.636Z,53.65
2018-06-09T09:12:30.050Z,50.75
2018-06-09T09:13:34.443Z,52.58
2018-06-09T09:14:39.227Z,53.75
2018-06-09T09:15:43.667Z,51.48
2018-06-09T09:16:47.843Z,53.75
2018-06-09T09:17:52.020Z,51.92
2018-06-09T09:18:56.117Z,54.20
2018-06-09T09:20:00.251Z,50.30
2018-06-09T09:21:04.479Z,52.90
2018-06-09T09:22:08.919Z,49.33
2018-06-09T09:23:13.349Z,48.98
2018-06-09T09:24:17.828Z,51.50
2018-06-09T09:25:22.282Z,49.73
2018-06-09T09:26:27.036Z,49.73
2018-06-09T09:27:31.650Z,51.42
2018-06-09T09:28:36.044Z,49.90
2018-06-09T09:29:40.267Z,49.67
2018-06-09T09:30:44.373Z,49.93
2018-06-09T09:31:48.517Z,48.17
2018-06-09T09:32:52.975Z,47.93
2018-06-09T09:33:57.133Z,48.30
2018-06-09T09:35:01.239Z,51.00
2018-06-09T09:36:05.361Z,52.17
2018-06-09T09:37:09.434Z,50.92
2018-06-09T09:38:13.585Z,50.75
2018-06-09T09:39:17.823Z,49.83
2018-06-09T09:40:21.899Z,52.85
2018-06-09T09:41:26.107Z,51.75
2018-06-09T09:42:30.300Z,51.73
2018-06-09T09:43:34.613Z,52.43
2018-06-09T09:44:39.182Z,52.23
2018-06-09T09:45:43.649Z,50.00
2018-06-09T09:46:47.826Z,50.52
2018-06-09T09:47:51.958Z,50.88
2018-06-09T09:48:57.111Z,49.67
2018-06-09T09:50:02.905Z,48.90
2018-06-09T09:51:07.776Z,47.35
2018-06-09T09:52:12.589Z,51.37
2018-06-09T09:53:16.987Z,50.85
2018-06-09T09:54:21.323Z,50.52
2018-06-09T09:55:25.763Z,50.30
2018-06-09T09:56:30.536Z,46.50
2018-06-09T09:57:46.799Z,46.70
2018-06-09T09:58:51.903Z,48.33
2018-06-09T09:59:56.537Z,48.95
2018-06-09T10:01:01.571Z,48.65
2018-06-09T10:02:07.159Z,50.38
2018-06-09T10:03:12.282Z,49.98
2018-06-09T10:04:16.518Z,47.25
2018-06-09T10:05:21.016Z,48.75
2018-06-09T10:06:26.334Z,51.90
2018-06-09T10:07:31.046Z,50.88
2018-06-09T10:08:36.019Z,47.80
2018-06-09T10:09:40.572Z,47.50
2018-06-09T10:10:45.424Z,52.53
2018-06-09T10:11:49.784Z,48.15
2018-06-09T10:12:54.179Z,50.23
2018-06-09T10:13:59.424Z,48.83
2018-06-09T10:15:04.423Z,48.25
2018-06-09T10:16:09.115Z,48.70
2018-06-09T10:17:13.893Z,45.50
2018-06-09T10:18:17.839Z,49.80
2018-06-09T10:19:22.341Z,49.50
2018-06-09T10:20:26.800Z,50.38
2018-06-09T10:21:31.588Z,48.08
2018-06-09T10:22:45.959Z,51.48
2018-06-09T10:23:50.123Z,56.15
2018-06-09T10:24:55.291Z,51.73
2018-06-09T10:27:29.216Z,49.05
2018-06-09T10:28:34.410Z,47.53
2018-06-09T10:29:38.889Z,48.95
2018-06-09T10:30:44.044Z,47.70
2018-06-09T10:31:48.579Z,47.25
2018-06-09T10:32:53.085Z,43.55
2018-06-09T10:33:58.002Z,47.85
2018-06-09T10:35:02.483Z,44.53
2018-06-09T10:36:07.129Z,40.20
2018-06-09T10:37:14.046Z,40.28
2018-06-09T10:38:18.894Z,39.48
2018-06-09T10:39:24.034Z,40.33
2018-06-09T10:40:28.598Z,39.95
2018-06-09T10:41:33.326Z,36.80
2018-06-09T10:42:37.759Z,34.15
2018-06-09T10:43:42.557Z,34.88
2018-06-09T10:44:47.102Z,35.40
2018-06-09T10:45:51.814Z,35.35
2018-06-09T10:46:56.892Z,36.48
2018-06-09T10:48:01.344Z,34.88
2018-06-09T10:49:05.675Z,34.53
2018-06-09T10:50:09.996Z,32.83
2018-06-09T10:51:14.938Z,34.33
2018-06-09T10:52:19.612Z,33.98
2018-06-09T10:53:24.328Z,31.62
2018-06-09T10:54:28.454Z,32.30
2018-06-09T10:55:32.596Z,33.70
2018-06-09T10:56:36.767Z,34.00
2018-06-09T10:57:41.218Z,33.08
2018-06-09T10:58:45.408Z,33.95
2018-06-09T10:59:49.832Z,32.25
2018-06-09T11:00:54.053Z,31.55
2018-06-09T11:01:58.690Z,41.05
2018-06-09T11:03:17.926Z,38.10
2018-06-09T11:04:22.288Z,35.60
2018-06-09T11:05:26.712Z,38.95
2018-06-09T11:06:31.133Z,38.83
2018-06-09T11:07:35.436Z,34.15
2018-06-09T11:08:40.040Z,31.17
2018-06-09T11:09:44.171Z,30.00
2018-06-09T11:10:48.431Z,29.07
2018-06-09T11:11:52.679Z,32.17
2018-06-09T11:12:56.927Z,27.80
2018-06-09T11:14:01.697Z,31.70
2018-06-09T11:15:06.034Z,29.32
2018-06-09T11:16:10.346Z,30.75
2018-06-09T11:17:14.727Z,28.98
2018-06-09T11:18:18.538Z,27.27
2018-06-09T11:19:22.939Z,27.35
2018-06-09T11:20:27.631Z,27.22
2018-06-09T11:21:32.073Z,26.07
2018-06-09T11:22:36.297Z,29.45
2018-06-09T11:23:40.474Z,26.50
2018-06-09T11:24:44.633Z,26.85
2018-06-09T11:25:48.844Z,26.87
2018-06-09T11:26:52.951Z,28.20
2018-06-09T11:27:57.129Z,28.50
2018-06-09T11:29:01.329Z,26.25
2018-06-09T11:30:05.547Z,28.38
2018-06-09T11:31:09.726Z,27.20
2018-06-09T11:32:14.121Z,30.20
2018-06-09T11:33:18.332Z,27.85
2018-06-09T11:34:23.343Z,27.77
2018-06-09T11:35:27.828Z,30.05
2018-06-09T11:36:32.265Z,26.95
2018-06-09T11:37:36.735Z,28.47
2018-06-09T11:38:41.480Z,28.07
2018-06-09T11:39:46.092Z,27.65
2018-06-09T11:40:50.677Z,26.02
2018-06-09T11:41:55.107Z,27.82
2018-06-09T11:42:58.919Z,27.00
2018-06-09T11:44:06.182Z,25.65
2018-06-09T11:45:10.662Z,27.05
2018-06-09T11:46:15.500Z,24.57
2018-06-09T11:47:20.167Z,25.25
2018-06-09T11:48:24.610Z,28.27
2018-06-09T11:49:28.999Z,25.23
2018-06-09T11:50:33.389Z,26.17
2018-06-09T11:51:37.865Z,25.30
2018-06-09T11:52:42.612Z,28.25
2018-06-09T11:53:46.837Z,28.38
2018-06-09T11:54:51.014Z,27.02
2018-06-09T11:55:55.191Z,26.50
2018-06-09T11:56:59.647Z,29.90
2018-06-09T11:58:04.142Z,28.17
2018-06-09T11:59:08.578Z,25.97
2018-06-09T12:00:13.079Z,27.20
2018-06-09T12:01:17.588Z,29.85
2018-06-09T12:02:22.604Z,26.37
2018-06-09T12:03:27.726Z,28.17
2018-06-09T12:04:32.104Z,27.62
2018-06-09T12:05:36.336Z,28.32
2018-06-09T12:06:40.549Z,26.77
2018-06-09T12:07:44.969Z,26.17
2018-06-09T12:08:49.506Z,24.75
2018-06-09T12:09:53.748Z,25.32
2018-06-09T12:10:57.913Z,27.60
2018-06-09T12:12:03.422Z,26.90
2018-06-09T12:13:07.848Z,29.50
2018-06-09T12:14:12.504Z,26.73
2018-06-09T12:15:16.881Z,26.00
2018-06-09T12:16:21.478Z,25.88
2018-06-09T12:17:26.048Z,25.37
2018-06-09T12:18:30.414Z,27.95
2018-06-09T12:19:34.837Z,26.52
2018-06-09T12:20:39.463Z,27.45
2018-06-09T12:21:43.924Z,27.48
2018-06-09T12:22:48.390Z,25.27
2018-06-09T12:23:52.666Z,26.42
2018-06-09T12:24:57.869Z,26.62
2018-06-09T12:26:03.867Z,26.10
2018-06-09T12:27:08.198Z,28.47
2018-06-09T12:28:14.253Z,27.50
2018-06-09T12:29:18.486Z,27.02
2018-06-09T12:30:25.007Z,26.90
2018-06-09T12:31:29.170Z,25.60
2018-06-09T12:32:33.705Z,29.52
2018-06-09T12:33:38.440Z,26.65
2018-06-09T12:34:43.166Z,22.95
2018-06-09T12:35:47.641Z,26.87
2018-06-09T12:36:52.370Z,26.23
2018-06-09T12:37:57.200Z,26.17
2018-06-09T12:39:01.710Z,26.37
2018-06-09T12:40:06.555Z,26.48
2018-06-09T12:41:10.863Z,34.70
2018-06-09T12:42:15.039Z,27.10
2018-06-09T12:43:19.340Z,26.23
2018-06-09T12:44:23.613Z,25.95
2018-06-09T12:45:27.775Z,27.10
2018-06-09T12:46:31.898Z,27.80
2018-06-09T12:47:36.120Z,28.83
2018-06-09T12:48:40.345Z,29.12
2018-06-09T12:49:44.754Z,25.12
2018-06-09T12:50:49.031Z,26.42
2018-06-09T12:51:53.239Z,25.20
2018-06-09T12:52:57.694Z,28.60
2018-06-09T12:54:01.929Z,28.25
2018-06-09T12:55:06.134Z,27.75
2018-06-09T12:56:10.450Z,27.60
2018-06-09T12:57:14.585Z,27.02
2018-06-09T12:58:19.214Z,27.10
2018-06-09T12:59:23.825Z,25.55
2018-06-09T13:00:28.164Z,25.00
2018-06-09T13:01:32.757Z,29.20
2018-06-09T13:02:37.100Z,26.82
2018-06-09T13:03:41.355Z,27.73
2018-06-09T13:04:46.155Z,29.00
2018-06-09T13:05:50.506Z,28.00
2018-06-09T13:06:56.852Z,28.40
2018-06-09T13:08:02.224Z,25.40
2018-06-09T13:10:51.974Z,26.65
2018-06-09T13:11:56.459Z,26.90
2018-06-09T13:13:00.256Z,28.15
2018-06-09T13:14:05.441Z,29.55
2018-06-09T13:15:10.019Z,30.37
2018-06-09T13:16:14.411Z,26.10
2018-06-09T13:17:18.926Z,27.58
2018-06-09T13:18:23.665Z,26.57
2018-06-09T13:19:28.534Z,26.35
2018-06-09T13:20:49.991Z,28.55
2018-06-09T13:21:54.271Z,26.80
2018-06-09T13:22:59.771Z,28.20
2018-06-09T13:24:06.158Z,25.17
2018-06-09T13:25:10.328Z,24.30
2018-06-09T13:26:14.480Z,27.17
2018-06-09T13:27:19.494Z,25.55
2018-06-09T13:28:23.832Z,25.25
2018-06-09T13:29:28.316Z,23.80
2018-06-09T13:30:33.465Z,23.22
2018-06-09T13:31:39.189Z,26.15
2018-06-09T13:32:43.346Z,26.42
2018-06-09T13:33:47.671Z,24.02
2018-06-09T13:34:52.807Z,26.75
2018-06-09T13:35:57.184Z,26.52
2018-06-09T13:37:01.914Z,24.40
2018-06-09T13:38:06.327Z,22.95
2018-06-09T13:39:11.695Z,25.90
2018-06-09T13:40:16.189Z,24.27
2018-06-09T13:41:20.555Z,22.40
2018-06-09T13:42:25.154Z,23.15
2018-06-09T13:43:29.520Z,24.55
2018-06-09T13:44:33.900Z,23.67
2018-06-09T13:45:38.422Z,23.87
2018-06-09T13:46:43.021Z,23.35
2018-06-09T13:47:47.713Z,22.20
2018-06-09T13:48:52.084Z,22.82
2018-06-09T13:49:56.781Z,21.35
2018-06-09T13:51:01.222Z,23.50
2018-06-09T13:52:05.750Z,26.07
2018-06-09T13:53:10.411Z,25.32
2018-06-09T13:54:14.808Z,24.43
2018-06-09T13:55:19.450Z,25.70
2018-06-09T13:56:23.849Z,27.60